Time;durP1;ratioP1;P1;durP2;ratioP2;P2;SDS_P1;SDS_P2;PMS_P1;PMS_P2;Temp;Humidity;BMP_temperature;BMP_pressure;BME280_temperature;BME280_humidity;BME280_pressure;Samples;Min_cycle;Max_cycle;Signal;HPM_P1;HPM_P2
2022/12/06 00:01:11;;;;;;;10.52;2.33;;;5.40;99.90;;;;;;5112205;28;20140;-69
2022/12/06 00:03:38;;;;;;;15.38;3.42;;;5.40;99.90;;;;;;5112362;28;20111;-69
2022/12/06 00:06:15;;;;;;;5.68;2.50;;;5.40;99.90;;;;;;5110964;28;20051;-69
2022/12/06 00:08:41;;;;;;;5.18;2.20;;;5.40;99.90;;;;;;5112883;28;20110;-69
2022/12/06 00:11:10;;;;;;;6.63;2.28;;;5.40;99.90;;;;;;5111412;28;20125;-69
2022/12/06 00:13:36;;;;;;;8.35;2.60;;;5.40;99.90;;;;;;5113769;28;20042;-68
2022/12/06 00:16:04;;;;;;;8.68;2.67;;;5.40;99.90;;;;;;5115706;28;20499;-68
2022/12/06 00:18:31;;;;;;;5.63;2.20;;;5.40;99.90;;;;;;5114707;28;20047;-68
2022/12/06 00:21:24;;;;;;;6.75;2.38;;;5.40;99.90;;;;;;5116928;28;20419;-68
2022/12/06 00:23:56;;;;;;;6.35;2.00;;;5.40;99.90;;;;;;5105806;28;20123;-68
2022/12/06 00:26:22;;;;;;;8.93;2.45;;;5.30;99.90;;;;;;5114282;28;20134;-69
2022/12/06 00:28:51;;;;;;;6.25;2.25;;;5.30;99.90;;;;;;5115091;28;20048;-68
2022/12/06 00:31:19;;;;;;;5.25;1.90;;;5.30;99.90;;;;;;5114757;28;20047;-69
2022/12/06 00:33:45;;;;;;;6.63;2.30;;;5.30;99.90;;;;;;5115907;28;20032;-69
2022/12/06 00:36:14;;;;;;;5.75;1.55;;;5.20;99.90;;;;;;5114688;28;20488;-69
2022/12/06 00:38:39;;;;;;;6.90;1.80;;;5.20;99.90;;;;;;5116339;28;20123;-69
2022/12/06 00:41:07;;;;;;;5.93;2.20;;;5.20;99.90;;;;;;5114177;28;20123;-68
2022/12/06 00:43:34;;;;;;;3.78;1.60;;;5.20;99.90;;;;;;5115070;28;20044;-69
2022/12/06 00:46:00;;;;;;;7.07;2.00;;;5.20;99.90;;;;;;5115803;28;20050;-69
2022/12/06 00:48:26;;;;;;;12.57;2.22;;;5.20;99.90;;;;;;5114402;28;20032;-68
2022/12/06 00:50:52;;;;;;;5.35;1.67;;;5.20;99.90;;;;;;5098320;28;20432;-68
2022/12/06 00:53:18;;;;;;;5.45;2.05;;;5.20;99.90;;;;;;5114872;28;20078;-69
2022/12/06 00:55:45;;;;;;;8.68;2.13;;;5.20;99.90;;;;;;5115296;28;20552;-69
2022/12/06 00:58:11;;;;;;;6.75;1.90;;;5.20;99.90;;;;;;5115301;28;20613;-69
2022/12/06 01:00:37;;;;;;;4.75;1.80;;;5.20;99.90;;;;;;5115345;28;20077;-69
2022/12/06 01:03:03;;;;;;;6.43;2.50;;;5.20;99.90;;;;;;5114763;28;20044;-68
2022/12/06 01:05:29;;;;;;;14.43;2.58;;;5.20;99.90;;;;;;5114768;28;20093;-68
2022/12/06 01:07:55;;;;;;;5.28;2.13;;;5.20;99.90;;;;;;5113963;28;20065;-69
2022/12/06 01:10:21;;;;;;;5.45;2.28;;;5.20;99.90;;;;;;5115408;28;20092;-69
2022/12/06 01:12:47;;;;;;;9.20;2.58;;;5.20;99.90;;;;;;5114288;28;20043;-69
2022/12/06 01:15:12;;;;;;;6.78;2.45;;;5.20;99.90;;;;;;5114615;28;20069;-69
2022/12/06 01:17:38;;;;;;;9.13;2.47;;;5.20;99.90;;;;;;5114509;28;20388;-69
2022/12/06 01:20:05;;;;;;;6.05;2.30;;;5.20;99.90;;;;;;5113861;28;20063;-69
2022/12/06 01:22:31;;;;;;;6.10;2.50;;;5.20;99.90;;;;;;5114779;28;20050;-69
2022/12/06 01:24:56;;;;;;;4.68;1.80;;;5.20;99.90;;;;;;5114424;28;20035;-69
2022/12/06 01:27:22;;;;;;;7.13;1.95;;;5.20;99.90;;;;;;5114651;28;20407;-70
2022/12/06 01:29:48;;;;;;;6.90;2.03;;;5.20;99.90;;;;;;5113260;28;20043;-69
2022/12/06 01:32:13;;;;;;;5.05;2.10;;;5.20;99.90;;;;;;5113690;28;20042;-69
2022/12/06 01:34:39;;;;;;;6.63;2.33;;;5.20;99.90;;;;;;5114543;28;20046;-69
2022/12/06 01:37:05;;;;;;;5.95;2.70;;;5.20;99.90;;;;;;5113274;28;20534;-69
2022/12/06 01:39:31;;;;;;;6.03;2.25;;;5.20;99.90;;;;;;5115587;28;20031;-69
2022/12/06 01:41:57;;;;;;;6.55;2.25;;;5.20;99.90;;;;;;5114330;28;20143;-69
2022/12/06 01:44:46;;;;;;;6.82;2.40;;;5.20;99.90;;;;;;5112606;28;20130;-69
2022/12/06 01:47:24;;;;;;;7.65;2.63;;;5.20;99.90;;;;;;5113716;28;20035;-69
2022/12/06 01:49:57;;;;;;;10.27;2.72;;;5.20;99.90;;;;;;5113094;28;20043;-69
2022/12/06 01:52:28;;;;;;;8.73;2.05;;;5.20;99.90;;;;;;5114446;28;20142;-69
2022/12/06 01:54:54;;;;;;;10.35;2.60;;;5.20;99.90;;;;;;5096747;28;20039;-69
2022/12/06 01:57:20;;;;;;;7.65;2.65;;;5.20;99.90;;;;;;5113704;28;20032;-69
2022/12/06 01:59:46;;;;;;;7.15;2.83;;;5.20;99.90;;;;;;5115023;28;20119;-69
2022/12/06 02:02:12;;;;;;;6.68;2.70;;;5.20;99.90;;;;;;5114362;28;20051;-69
2022/12/06 02:04:38;;;;;;;6.82;2.63;;;5.20;99.90;;;;;;5112682;28;20043;-68
2022/12/06 02:07:05;;;;;;;8.55;2.80;;;5.20;99.90;;;;;;5113152;28;20043;-69
2022/12/06 02:09:32;;;;;;;6.50;2.40;;;5.10;99.90;;;;;;5113542;28;20122;-69
2022/12/06 02:11:58;;;;;;;10.82;2.35;;;5.10;99.90;;;;;;5112584;28;20096;-68
2022/12/06 02:14:29;;;;;;;8.75;2.70;;;5.20;99.90;;;;;;5113223;28;20414;-68
2022/12/06 02:17:13;;;;;;;5.72;2.45;;;5.10;99.90;;;;;;5096274;28;20092;-68
2022/12/06 02:19:57;;;;;;;8.57;2.88;;;5.10;99.90;;;;;;5112549;28;20507;-68
2022/12/06 02:22:34;;;;;;;6.65;3.17;;;5.10;99.90;;;;;;5114053;28;20047;-69
2022/12/06 02:25:16;;;;;;;7.35;2.55;;;5.10;99.90;;;;;;5112481;28;20047;-69
2022/12/06 02:28:20;;;;;;;7.35;3.13;;;5.10;99.90;;;;;;5112809;28;20488;-69
2022/12/06 02:31:03;;;;;;;6.15;3.00;;;5.10;99.90;;;;;;5114247;28;20495;-69
2022/12/06 02:33:51;;;;;;;7.18;2.58;;;5.10;99.90;;;;;;5112235;28;20052;-68
2022/12/06 02:36:38;;;;;;;6.10;2.80;;;5.00;99.90;;;;;;5113312;28;20613;-68
2022/12/06 02:39:10;;;;;;;7.30;2.65;;;5.00;99.90;;;;;;5112939;28;20043;-69
2022/12/06 02:41:41;;;;;;;6.40;2.40;;;4.90;99.90;;;;;;5114018;28;20538;-68
2022/12/06 02:44:14;;;;;;;6.63;2.65;;;4.90;99.90;;;;;;5112221;28;20050;-68
2022/12/06 02:46:42;;;;;;;5.40;2.30;;;4.90;99.90;;;;;;5112511;28;20051;-68
2022/12/06 02:49:11;;;;;;;8.07;2.38;;;4.80;99.90;;;;;;5112503;28;20051;-69
2022/12/06 02:51:37;;;;;;;5.80;2.60;;;4.90;99.90;;;;;;5112627;28;20043;-69
2022/12/06 02:54:07;;;;;;;6.68;2.10;;;4.80;99.90;;;;;;5112881;28;20529;-69
2022/12/06 02:56:34;;;;;;;6.65;2.38;;;4.80;99.90;;;;;;5113896;28;20081;-69
2022/12/06 02:59:00;;;;;;;7.03;2.90;;;4.80;99.90;;;;;;5113732;28;20067;-69
2022/12/06 03:01:29;;;;;;;7.78;3.50;;;4.80;99.90;;;;;;5111135;28;20047;-69
2022/12/06 03:04:30;;;;;;;10.45;2.65;;;4.70;99.90;;;;;;5112468;28;20555;-69
2022/12/06 03:07:14;;;;;;;6.13;2.30;;;4.70;99.90;;;;;;5100610;28;20051;-69
2022/12/06 03:09:51;;;;;;;8.23;2.72;;;4.60;99.90;;;;;;5112190;28;20044;-69
2022/12/06 03:12:29;;;;;;;5.65;2.53;;;4.60;99.90;;;;;;5111834;28;20430;-70
2022/12/06 03:15:33;;;;;;;6.15;3.00;;;4.60;99.90;;;;;;5111819;28;20130;-69
2022/12/06 03:18:18;;;;;;;8.25;2.95;;;4.60;99.90;;;;;;5084292;28;20480;-69
2022/12/06 03:20:49;;;;;;;10.40;4.60;;;4.60;99.90;;;;;;5111303;28;20087;-69
2022/12/06 03:23:29;;;;;;;8.95;4.40;;;4.60;99.90;;;;;;5111813;28;20095;-69
2022/12/06 03:25:59;;;;;;;8.15;3.35;;;4.60;99.90;;;;;;5111902;28;20047;-69
2022/12/06 03:28:26;;;;;;;7.22;3.53;;;4.50;99.90;;;;;;5111943;28;20046;-69
2022/12/06 03:30:54;;;;;;;8.35;3.88;;;4.60;99.90;;;;;;5111743;28;20051;-69
2022/12/06 03:33:25;;;;;;;9.80;3.78;;;4.50;99.90;;;;;;5112610;28;20173;-69
2022/12/06 03:35:53;;;;;;;7.28;3.35;;;4.50;99.90;;;;;;5111149;28;20070;-69
2022/12/06 03:38:36;;;;;;;7.10;3.00;;;4.50;99.90;;;;;;5111241;28;20051;-69
2022/12/06 03:41:04;;;;;;;9.80;3.58;;;4.50;99.90;;;;;;5113208;28;20050;-68
2022/12/06 03:43:31;;;;;;;7.40;2.90;;;4.50;99.90;;;;;;5111284;28;20101;-69
2022/12/06 03:46:12;;;;;;;7.90;3.70;;;4.50;99.90;;;;;;5112166;28;20043;-69
2022/12/06 03:48:43;;;;;;;7.35;3.17;;;4.50;99.90;;;;;;5112412;28;20097;-69
2022/12/06 03:51:27;;;;;;;6.18;3.00;;;4.50;99.90;;;;;;5093927;28;20043;-68
2022/12/06 03:53:57;;;;;;;6.45;3.08;;;4.60;99.90;;;;;;5111586;28;20040;-68
2022/12/06 03:56:23;;;;;;;7.10;2.65;;;4.60;99.90;;;;;;5111728;28;20042;-69
2022/12/06 03:58:48;;;;;;;6.18;3.13;;;4.60;99.90;;;;;;5111896;28;20035;-69
2022/12/06 04:01:15;;;;;;;5.95;2.67;;;4.60;99.90;;;;;;5111103;28;20480;-69
2022/12/06 04:03:40;;;;;;;6.10;2.97;;;4.60;99.90;;;;;;5110600;28;20040;-69
2022/12/06 04:06:08;;;;;;;10.32;2.58;;;4.60;99.90;;;;;;5111170;28;20042;-69
2022/12/06 04:08:34;;;;;;;6.95;3.10;;;4.60;99.90;;;;;;5111460;28;20070;-68
2022/12/06 04:11:00;;;;;;;6.57;2.78;;;4.60;99.90;;;;;;5093762;28;20031;-68
2022/12/06 04:13:26;;;;;;;7.40;2.50;;;4.70;99.90;;;;;;5112233;28;20054;-69
2022/12/06 04:15:57;;;;;;;7.97;3.00;;;4.70;99.90;;;;;;5111685;28;20096;-69
2022/12/06 04:18:24;;;;;;;4.50;1.60;;;4.70;99.90;;;;;;5110304;28;20629;-69
2022/12/06 04:23:49;;;;;;;7.22;1.40;;;4.80;99.90;;;;;;5111801;28;20087;-69
2022/12/06 04:26:18;;;;;;;4.25;1.30;;;4.80;99.90;;;;;;5109801;28;20055;-69
2022/12/06 04:39:43;;;;;;;3.25;1.23;;;4.90;99.90;;;;;;5110942;28;20433;-69
2022/12/06 04:44:53;;;;;;;8.67;1.50;;;4.90;99.90;;;;;;5111479;28;20117;-68
2022/12/06 04:47:19;;;;;;;6.03;1.52;;;4.90;99.90;;;;;;5109834;28;20488;-69
2022/12/06 04:49:45;;;;;;;5.00;1.65;;;4.90;99.90;;;;;;5112250;28;20101;-69
2022/12/06 04:52:11;;;;;;;7.43;1.90;;;4.90;99.90;;;;;;5109678;28;20043;-69
2022/12/06 04:54:37;;;;;;;4.20;1.55;;;4.90;99.90;;;;;;5110941;28;20031;-69
2022/12/06 04:57:03;;;;;;;6.65;1.90;;;4.90;99.90;;;;;;5111285;28;20064;-69
2022/12/06 04:59:29;;;;;;;4.40;1.38;;;4.90;99.90;;;;;;5111070;28;20055;-69
2022/12/06 05:01:55;;;;;;;4.25;1.50;;;4.90;99.90;;;;;;5115931;28;20043;-69
2022/12/06 05:04:22;;;;;;;5.00;1.48;;;4.90;99.90;;;;;;5115589;27;20040;-69
2022/12/06 05:06:48;;;;;;;7.30;1.95;;;4.90;99.90;;;;;;5115245;28;20123;-69
2022/12/06 05:09:14;;;;;;;4.25;1.60;;;4.90;99.90;;;;;;5115493;28;20035;-69
2022/12/06 05:11:41;;;;;;;5.47;2.05;;;4.90;99.90;;;;;;5114862;28;20040;-69
2022/12/06 05:14:07;;;;;;;4.63;1.70;;;4.90;99.90;;;;;;5114553;28;20553;-68
2022/12/06 05:16:33;;;;;;;5.18;2.00;;;4.90;99.90;;;;;;5115688;28;20039;-69
2022/12/06 05:18:58;;;;;;;7.53;2.47;;;4.90;99.90;;;;;;5114442;28;20211;-69
2022/12/06 05:21:24;;;;;;;7.85;1.65;;;4.90;99.90;;;;;;5113099;28;20055;-69
2022/12/06 05:23:54;;;;;;;5.85;1.85;;;4.90;99.90;;;;;;5114599;28;20476;-69
2022/12/06 05:26:22;;;;;;;4.70;1.25;;;4.90;99.90;;;;;;5113608;28;20051;-69
2022/12/06 05:28:48;;;;;;;7.60;1.50;;;4.90;99.90;;;;;;5113482;28;20472;-69
2022/12/06 05:31:15;;;;;;;4.97;1.40;;;4.90;99.90;;;;;;5114992;28;20036;-69
2022/12/06 05:33:41;;;;;;;6.10;1.38;;;4.90;99.90;;;;;;5115409;28;20088;-69
2022/12/06 05:36:21;;;;;;;3.75;1.10;;;4.90;99.90;;;;;;5112973;28;20032;-69
2022/12/06 05:38:48;;;;;;;5.68;1.70;;;4.90;99.90;;;;;;5114137;28;20110;-69
2022/12/06 05:41:14;;;;;;;3.95;1.60;;;4.80;99.90;;;;;;5112972;28;20067;-69
2022/12/06 05:43:40;;;;;;;4.15;1.70;;;4.80;99.90;;;;;;5115553;28;20075;-69
2022/12/06 05:46:06;;;;;;;5.45;1.23;;;4.70;99.90;;;;;;5114838;28;20036;-69
2022/12/06 05:48:31;;;;;;;4.30;1.60;;;4.60;99.90;;;;;;5112948;28;20036;-69
2022/12/06 05:50:57;;;;;;;4.38;1.83;;;4.60;99.90;;;;;;5113890;28;20039;-69
2022/12/06 05:53:23;;;;;;;17.73;13.23;;;4.50;99.90;;;;;;5114692;28;20043;-69
2022/12/06 05:55:49;;;;;;;6.05;3.00;;;4.40;99.90;;;;;;5114223;28;20088;-68
2022/12/06 05:58:15;;;;;;;5.10;1.42;;;4.40;99.90;;;;;;5113531;28;20107;-69
2022/12/06 06:00:44;;;;;;;4.97;2.00;;;4.30;99.90;;;;;;5115025;28;20114;-68
2022/12/06 06:03:09;;;;;;;7.05;2.47;;;4.20;99.90;;;;;;5112415;28;20043;-69
2022/12/06 06:05:35;;;;;;;5.68;2.50;;;4.10;99.90;;;;;;5114871;28;20366;-69
2022/12/06 06:08:01;;;;;;;7.88;3.30;;;4.00;99.90;;;;;;5113756;28;20036;-69
2022/12/06 06:10:26;;;;;;;7.15;3.65;;;3.90;99.90;;;;;;5111856;28;20035;-69
2022/12/06 06:12:52;;;;;;;8.68;4.40;;;3.80;99.90;;;;;;5114066;28;20039;-69
2022/12/06 06:15:18;;;;;;;5.97;3.17;;;3.80;99.90;;;;;;5114310;28;20099;-68
2022/12/06 06:17:43;;;;;;;6.80;2.70;;;3.80;99.90;;;;;;5095448;28;20035;-69
2022/12/06 06:20:12;;;;;;;5.35;2.25;;;3.70;99.90;;;;;;5113067;28;20392;-69
2022/12/06 06:22:40;;;;;;;5.32;1.85;;;3.60;99.90;;;;;;5114634;28;20043;-69
2022/12/06 06:25:06;;;;;;;10.50;3.15;;;3.60;99.90;;;;;;5111835;28;20051;-69
2022/12/06 06:27:36;;;;;;;7.45;2.53;;;3.50;99.90;;;;;;5112960;28;20073;-69
2022/12/06 06:30:09;;;;;;;8.38;3.80;;;3.40;99.90;;;;;;5113157;28;20057;-69
2022/12/06 06:32:35;;;;;;;20.10;7.32;;;3.40;99.90;;;;;;5113508;28;20044;-69
2022/12/06 06:35:01;;;;;;;7.90;5.22;;;3.40;99.90;;;;;;5113496;28;20044;-69
2022/12/06 06:37:27;;;;;;;9.20;6.40;;;3.40;99.90;;;;;;5112532;28;20487;-69
2022/12/06 06:39:53;;;;;;;9.52;5.65;;;3.30;99.90;;;;;;5112677;28;20050;-69
2022/12/06 06:42:18;;;;;;;7.43;4.43;;;3.30;99.90;;;;;;5113438;28;20051;-69
2022/12/06 06:44:44;;;;;;;7.00;3.28;;;3.30;99.90;;;;;;5113314;28;20093;-69
2022/12/06 06:47:10;;;;;;;7.55;3.17;;;3.30;99.90;;;;;;5112397;28;20071;-69
2022/12/06 06:49:36;;;;;;;7.97;3.38;;;3.40;99.90;;;;;;5112728;28;20039;-69
2022/12/06 06:52:02;;;;;;;7.65;4.10;;;3.40;99.90;;;;;;5111909;28;20051;-69
2022/12/06 06:54:27;;;;;;;7.30;3.80;;;3.40;99.90;;;;;;5095002;28;20039;-69
2022/12/06 06:56:56;;;;;;;8.90;3.95;;;3.40;99.90;;;;;;5112730;28;20040;-69
2022/12/06 06:59:23;;;;;;;11.45;4.70;;;3.40;99.90;;;;;;5111061;28;20124;-69
2022/12/06 07:01:48;;;;;;;8.20;5.00;;;3.40;99.90;;;;;;5113619;28;20122;-69
2022/12/06 07:04:14;;;;;;;10.15;4.55;;;3.40;99.90;;;;;;5112013;28;20456;-69
2022/12/06 07:06:40;;;;;;;9.18;5.55;;;3.40;99.90;;;;;;5111669;28;20155;-69
2022/12/06 07:09:05;;;;;;;8.70;5.20;;;3.40;99.90;;;;;;5111815;28;20132;-69
2022/12/06 07:11:31;;;;;;;10.77;4.72;;;3.40;99.90;;;;;;5095297;28;20043;-70
2022/12/06 07:13:57;;;;;;;7.35;4.20;;;3.40;99.90;;;;;;5111451;28;20036;-68
2022/12/06 07:16:22;;;;;;;8.27;3.70;;;3.40;99.90;;;;;;5112940;28;20039;-69
2022/12/06 07:18:48;;;;;;;8.70;3.95;;;3.40;99.90;;;;;;5112334;28;20396;-69
2022/12/06 07:21:15;;;;;;;7.63;3.67;;;3.40;99.90;;;;;;5109228;27;20047;-69
2022/12/06 07:23:41;;;;;;;10.07;3.88;;;3.40;99.90;;;;;;5095187;28;20040;-68
2022/12/06 07:26:14;;;;;;;7.65;3.05;;;3.50;99.90;;;;;;5111458;28;20103;-68
2022/12/06 07:28:42;;;;;;;7.43;3.42;;;3.50;99.90;;;;;;5111197;28;20052;-68
2022/12/06 07:31:15;;;;;;;9.05;4.55;;;3.50;99.90;;;;;;5107370;28;20039;-69
2022/12/06 07:33:44;;;;;;;6.97;3.63;;;3.60;99.90;;;;;;5109111;28;20552;-69
2022/12/06 07:36:10;;;;;;;7.68;3.88;;;3.50;99.90;;;;;;5108408;28;20403;-68
2022/12/06 07:38:36;;;;;;;6.85;3.55;;;3.60;99.90;;;;;;5109392;28;20089;-69
2022/12/06 07:46:38;;;;;;;7.00;3.60;;;3.60;99.90;;;;;;5093177;28;20752;-68
2022/12/06 07:49:04;;;;;;;6.95;3.25;;;3.60;99.90;;;;;;5107137;28;20077;-68
2022/12/06 07:51:30;;;;;;;6.57;3.38;;;3.60;99.90;;;;;;5110673;28;20050;-68
2022/12/06 07:53:56;;;;;;;9.93;3.80;;;3.60;99.90;;;;;;5109125;28;20047;-68
2022/12/06 07:56:22;;;;;;;6.80;3.20;;;3.60;99.90;;;;;;5108082;28;20086;-68
2022/12/06 07:58:48;;;;;;;6.07;3.45;;;3.60;99.90;;;;;;5110097;28;20440;-68
2022/12/06 08:01:13;;;;;;;9.30;3.95;;;3.60;99.90;;;;;;5108773;28;20498;-68
2022/12/06 08:03:39;;;;;;;7.00;3.58;;;3.60;99.90;;;;;;5109786;28;20044;-69
2022/12/06 08:06:05;;;;;;;9.05;4.18;;;3.70;99.90;;;;;;5108465;28;20043;-69
2022/12/06 08:08:31;;;;;;;6.57;3.25;;;3.60;99.90;;;;;;5109313;28;20149;-69
2022/12/06 08:11:01;;;;;;;8.98;3.38;;;3.70;99.90;;;;;;5109944;28;20061;-68
2022/12/06 08:13:28;;;;;;;7.00;3.45;;;3.70;99.90;;;;;;5108767;28;20048;-69
2022/12/06 08:15:53;;;;;;;9.88;3.75;;;3.70;99.90;;;;;;5110559;28;20046;-68
2022/12/06 08:18:19;;;;;;;9.70;3.63;;;3.70;99.90;;;;;;5108373;28;20043;-69
2022/12/06 08:20:45;;;;;;;9.02;3.60;;;3.70;99.90;;;;;;5110284;28;20676;-68
2022/12/06 08:23:10;;;;;;;7.80;3.55;;;3.70;99.90;;;;;;5109177;28;20078;-71
2022/12/06 08:25:36;;;;;;;7.38;3.00;;;3.80;99.90;;;;;;5110359;28;20035;-69
2022/12/06 08:28:02;;;;;;;10.52;4.13;;;3.80;99.90;;;;;;5107652;28;20048;-69
2022/12/06 08:30:28;;;;;;;7.97;3.15;;;3.90;99.90;;;;;;5095159;28;20446;-69
2022/12/06 08:32:54;;;;;;;5.30;2.45;;;3.90;99.90;;;;;;5101646;28;20054;-70
2022/12/06 08:35:19;;;;;;;6.43;3.00;;;3.90;99.90;;;;;;5089654;28;20043;-67
2022/12/06 08:37:45;;;;;;;10.13;3.88;;;3.90;99.90;;;;;;5106253;28;20031;-69
2022/12/06 08:40:11;;;;;;;7.82;4.80;;;4.00;99.90;;;;;;5111713;28;20040;-70
2022/12/06 08:42:37;;;;;;;8.25;3.70;;;4.00;99.90;;;;;;5094853;28;20621;-70
2022/12/06 08:45:03;;;;;;;9.73;4.53;;;4.10;99.90;;;;;;5112055;28;20050;-70
2022/12/06 08:47:29;;;;;;;8.00;3.83;;;4.10;99.90;;;;;;5109893;28;20487;-69
2022/12/06 08:49:54;;;;;;;9.73;4.07;;;4.10;99.90;;;;;;5111766;28;20043;-69
2022/12/06 08:52:20;;;;;;;9.88;4.10;;;4.10;99.90;;;;;;5110286;28;20126;-69
2022/12/06 08:54:46;;;;;;;9.23;4.55;;;4.10;99.90;;;;;;5111178;28;20043;-69
2022/12/06 08:57:12;;;;;;;8.13;3.80;;;4.10;99.90;;;;;;5111300;28;20046;-70
2022/12/06 08:59:38;;;;;;;7.78;4.30;;;4.20;99.90;;;;;;5112039;28;20126;-69
2022/12/06 09:02:03;;;;;;;8.63;3.50;;;4.20;99.90;;;;;;5111408;28;20044;-69
2022/12/06 09:04:29;;;;;;;10.68;4.47;;;4.20;99.90;;;;;;5106045;28;20050;-69
2022/12/06 09:06:54;;;;;;;8.55;4.70;;;4.20;99.90;;;;;;5110796;28;20134;-69
2022/12/06 09:09:20;;;;;;;9.00;4.88;;;4.30;99.90;;;;;;5099949;28;20059;-69
2022/12/06 09:11:48;;;;;;;8.25;3.97;;;4.40;99.90;;;;;;5110935;28;20054;-69
2022/12/06 09:14:16;;;;;;;6.63;3.75;;;4.40;99.90;;;;;;5106296;28;20122;-69
2022/12/06 09:16:43;;;;;;;6.97;3.90;;;4.40;99.90;;;;;;5091471;28;20043;-69
2022/12/06 09:19:10;;;;;;;50.53;32.63;;;4.40;99.90;;;;;;5110227;28;20043;-69
2022/12/06 09:21:38;;;;;;;28.27;17.90;;;4.50;99.90;;;;;;5104445;28;20062;-69
2022/12/06 09:24:05;;;;;;;43.75;28.10;;;4.50;99.90;;;;;;5106733;28;20036;-69
2022/12/06 09:26:31;;;;;;;63.53;40.72;;;4.40;99.90;;;;;;5110545;28;20579;-69
2022/12/06 09:28:58;;;;;;;47.45;30.77;;;4.50;99.90;;;;;;5112746;28;20047;-70
2022/12/06 09:31:24;;;;;;;17.73;10.48;;;4.50;99.90;;;;;;5110571;28;20778;-69
2022/12/06 09:33:50;;;;;;;16.05;9.07;;;4.50;99.90;;;;;;5093232;28;20039;-69
2022/12/06 09:36:23;;;;;;;10.55;5.88;;;4.60;99.90;;;;;;5093879;28;20044;-69
2022/12/06 09:38:54;;;;;;;10.55;4.78;;;4.60;99.90;;;;;;5113464;28;20092;-69
2022/12/06 09:41:48;;;;;;;7.45;3.38;;;4.70;99.90;;;;;;5111907;28;20031;-70
2022/12/06 09:44:44;;;;;;;7.63;4.03;;;4.70;99.90;;;;;;5113184;28;20093;-70
2022/12/06 09:47:22;;;;;;;7.07;3.35;;;4.70;99.90;;;;;;5113478;28;20047;-69
2022/12/06 09:50:07;;;;;;;9.18;4.40;;;4.80;99.90;;;;;;5114930;28;20503;-70
2022/12/06 09:52:36;;;;;;;6.65;3.90;;;4.90;99.90;;;;;;5113911;28;20629;-70
2022/12/06 09:55:19;;;;;;;9.90;4.10;;;4.90;99.90;;;;;;5114043;28;20040;-69
2022/12/06 09:58:09;;;;;;;9.73;3.95;;;4.90;99.90;;;;;;5115199;28;20050;-70
2022/12/06 10:00:48;;;;;;;7.75;3.72;;;5.00;99.90;;;;;;5114854;28;20028;-70
2022/12/06 10:03:56;;;;;;;9.88;4.55;;;5.10;99.90;;;;;;5113569;28;20043;-69
2022/12/06 10:06:25;;;;;;;8.68;3.80;;;5.10;99.90;;;;;;5100001;28;20054;-69
2022/12/06 10:09:15;;;;;;;7.45;3.58;;;5.10;99.90;;;;;;5112481;28;20813;-69
2022/12/06 10:11:56;;;;;;;6.43;3.38;;;5.20;99.90;;;;;;5114825;28;20121;-69
2022/12/06 10:14:52;;;;;;;7.20;3.67;;;5.20;99.90;;;;;;5113501;28;20395;-69
2022/12/06 10:17:40;;;;;;;6.05;3.20;;;5.30;99.90;;;;;;5094931;28;20043;-69
2022/12/06 10:20:27;;;;;;;6.38;3.58;;;5.30;99.90;;;;;;5113890;28;20098;-70
2022/12/06 10:23:10;;;;;;;6.93;3.75;;;5.30;99.90;;;;;;5113199;28;20048;-69
2022/12/06 10:25:57;;;;;;;8.88;3.63;;;5.30;99.90;;;;;;5114626;28;20547;-69
2022/12/06 10:28:43;;;;;;;6.25;3.60;;;5.40;99.90;;;;;;5111186;28;20097;-70
2022/12/06 10:31:22;;;;;;;7.97;3.90;;;5.50;99.90;;;;;;5109404;28;20046;-69
2022/12/06 10:33:52;;;;;;;12.02;4.90;;;5.50;99.90;;;;;;5106996;28;20028;-69
2022/12/06 10:36:39;;;;;;;8.50;4.10;;;5.50;99.90;;;;;;5090717;28;20127;-70
2022/12/06 10:39:22;;;;;;;12.07;7.45;;;5.60;99.90;;;;;;5092045;28;20035;-70
2022/12/06 10:42:08;;;;;;;9.90;5.22;;;5.60;99.90;;;;;;5112088;28;20031;-70
2022/12/06 10:44:36;;;;;;;9.25;5.20;;;5.70;99.90;;;;;;5110179;28;20044;-69
2022/12/06 10:47:17;;;;;;;10.90;5.38;;;5.80;99.90;;;;;;5111486;28;20035;-70
2022/12/06 10:50:15;;;;;;;8.40;4.15;;;5.80;99.90;;;;;;5113415;28;20039;-70
2022/12/06 10:52:50;;;;;;;9.15;3.45;;;5.90;99.90;;;;;;5108303;28;20047;-70
2022/12/06 10:55:48;;;;;;;9.13;2.70;;;6.00;99.90;;;;;;5099940;28;20040;-70
2022/12/06 10:58:35;;;;;;;6.22;3.03;;;6.00;99.90;;;;;;5102260;28;20043;-70
2022/12/06 11:01:07;;;;;;;5.95;2.75;;;6.10;99.90;;;;;;5090786;28;20042;-70
2022/12/06 11:03:33;;;;;;;12.35;4.22;;;6.10;99.90;;;;;;5112858;28;20077;-70
2022/12/06 11:06:13;;;;;;;7.78;3.90;;;6.20;99.90;;;;;;5110703;28;20043;-70
2022/12/06 11:08:45;;;;;;;7.43;3.55;;;6.30;99.90;;;;;;5111796;28;20039;-70
2022/12/06 11:11:23;;;;;;;7.00;3.20;;;6.20;99.90;;;;;;5111079;28;20092;-70
2022/12/06 11:13:58;;;;;;;6.22;2.67;;;6.30;99.90;;;;;;5109360;28;20117;-70
2022/12/06 11:16:32;;;;;;;5.80;2.13;;;6.30;99.90;;;;;;5113795;28;20119;-70
2022/12/06 11:19:15;;;;;;;8.43;2.30;;;6.40;99.90;;;;;;5110762;28;20043;-70
2022/12/06 11:21:48;;;;;;;6.80;2.80;;;6.40;99.90;;;;;;5101737;28;20540;-70
2022/12/06 11:24:27;;;;;;;7.45;3.00;;;6.40;99.90;;;;;;5111072;28;20088;-70
2022/12/06 11:27:14;;;;;;;7.80;2.40;;;6.50;99.90;;;;;;5111109;28;20054;-70
2022/12/06 11:29:42;;;;;;;14.65;3.13;;;6.50;99.90;;;;;;5112346;28;20035;-70
2022/12/06 11:32:11;;;;;;;6.70;2.40;;;6.60;99.90;;;;;;5096844;28;20035;-70
2022/12/06 11:34:50;;;;;;;5.47;2.20;;;6.50;99.90;;;;;;5107684;28;20043;-69
2022/12/06 11:37:22;;;;;;;5.68;2.47;;;6.50;99.90;;;;;;5090798;28;20052;-69
2022/12/06 11:39:51;;;;;;;5.28;2.22;;;6.60;99.90;;;;;;5091345;28;20032;-69
2022/12/06 11:42:25;;;;;;;5.45;2.38;;;6.60;99.90;;;;;;5106849;28;20048;-69
2022/12/06 11:44:55;;;;;;;6.15;2.85;;;6.60;99.90;;;;;;5111984;28;20567;-69
2022/12/06 11:47:22;;;;;;;6.95;2.85;;;6.60;99.90;;;;;;5110988;28;20088;-69
2022/12/06 11:49:50;;;;;;;5.75;2.42;;;6.50;99.90;;;;;;5092338;28;20048;-70
2022/12/06 11:52:32;;;;;;;10.43;3.20;;;6.60;99.90;;;;;;5089999;28;20044;-70
2022/12/06 11:55:05;;;;;;;6.93;2.40;;;6.60;99.90;;;;;;5110391;28;20023;-70
2022/12/06 11:57:37;;;;;;;8.82;2.83;;;6.60;99.90;;;;;;5111314;28;20066;-69
2022/12/06 12:00:17;;;;;;;6.45;3.38;;;6.60;99.90;;;;;;5093964;28;20032;-65
2022/12/06 12:02:46;;;;;;;7.80;2.85;;;6.70;99.90;;;;;;5110703;28;20480;-65
2022/12/06 12:05:29;;;;;;;7.72;3.00;;;6.60;99.90;;;;;;5112037;28;20464;-65
2022/12/06 12:08:06;;;;;;;4.63;2.05;;;6.60;99.90;;;;;;5111932;28;20365;-65
2022/12/06 12:10:38;;;;;;;6.50;2.17;;;6.60;99.90;;;;;;5112105;28;20093;-69
2022/12/06 12:16:25;;;;;;;4.53;1.70;;;6.70;99.90;;;;;;5111078;28;20046;-67
2022/12/06 12:18:56;;;;;;;4.47;1.50;;;6.80;99.90;;;;;;5111033;28;20043;-68
2022/12/06 12:21:40;;;;;;;4.13;1.77;;;6.80;99.90;;;;;;5110640;28;20044;-69
2022/12/06 12:24:38;;;;;;;3.78;1.20;;;6.90;99.90;;;;;;5093141;28;20040;-68
2022/12/06 12:27:40;;;;;;;6.00;1.40;;;6.90;99.90;;;;;;5111687;28;20075;-68
2022/12/06 12:30:31;;;;;;;4.28;1.60;;;6.90;99.90;;;;;;5109985;28;20032;-68
2022/12/06 12:33:06;;;;;;;8.23;2.50;;;6.90;99.90;;;;;;5102059;28;20496;-69
2022/12/06 12:35:38;;;;;;;5.90;1.70;;;6.90;99.90;;;;;;5112388;28;20067;-68
2022/12/06 12:38:11;;;;;;;4.97;1.88;;;6.90;99.90;;;;;;5111040;28;20096;-69
2022/12/06 12:40:54;;;;;;;3.03;1.55;;;6.90;99.90;;;;;;5111342;28;20039;-69
2022/12/06 12:43:28;;;;;;;3.95;1.65;;;6.90;99.90;;;;;;5111266;28;20051;-69
2022/12/06 12:46:09;;;;;;;4.15;1.40;;;6.90;99.90;;;;;;5111284;28;20048;-69
2022/12/06 12:48:43;;;;;;;3.83;1.30;;;6.90;99.90;;;;;;5112241;28;20415;-69
2022/12/06 12:51:27;;;;;;;4.95;1.40;;;6.90;99.90;;;;;;5111254;28;20381;-68
2022/12/06 12:53:56;;;;;;;5.20;1.90;;;7.00;99.90;;;;;;5112554;28;20043;-68
2022/12/06 12:56:22;;;;;;;7.07;2.53;;;7.00;99.90;;;;;;5110667;28;20366;-68
2022/12/06 12:58:55;;;;;;;6.68;2.63;;;7.10;99.90;;;;;;5093296;28;20035;-69
2022/12/06 13:01:24;;;;;;;8.75;2.47;;;7.10;99.90;;;;;;5110470;28;20044;-69
2022/12/06 13:04:35;;;;;;;4.30;1.50;;;7.10;99.90;;;;;;5111029;28;20121;-69
2022/12/06 13:07:16;;;;;;;4.80;1.98;;;7.20;99.90;;;;;;5111076;28;20412;-69
2022/12/06 13:10:03;;;;;;;5.32;1.80;;;7.20;99.90;;;;;;5111252;28;20477;-69
2022/12/06 13:12:57;;;;;;;5.97;2.45;;;7.10;99.90;;;;;;5110029;28;20089;-69
2022/12/06 13:15:36;;;;;;;5.38;1.92;;;7.10;99.90;;;;;;5110661;28;20392;-69
2022/12/06 13:18:11;;;;;;;4.05;1.63;;;7.10;99.90;;;;;;5111229;28;20039;-68
2022/12/06 13:20:38;;;;;;;6.68;1.85;;;7.20;99.90;;;;;;5111358;27;20430;-69
2022/12/06 13:23:17;;;;;;;3.95;1.67;;;7.20;99.90;;;;;;5113863;28;20097;-68
2022/12/06 13:25:54;;;;;;;6.32;1.80;;;7.30;99.90;;;;;;5114855;28;20044;-69
2022/12/06 13:28:26;;;;;;;5.43;1.45;;;7.30;99.90;;;;;;5114947;28;20505;-68
2022/12/06 13:30:59;;;;;;;3.40;1.65;;;7.30;99.90;;;;;;5114423;28;20039;-68
2022/12/06 13:33:27;;;;;;;6.88;3.17;;;7.30;99.90;;;;;;5114168;28;20044;-69
2022/12/06 13:36:04;;;;;;;4.95;1.92;;;7.30;99.90;;;;;;5115624;28;20031;-68
2022/12/06 13:38:36;;;;;;;7.40;2.45;;;7.30;99.90;;;;;;5114251;28;20114;-69
2022/12/06 13:41:13;;;;;;;4.72;2.03;;;7.30;99.90;;;;;;5114674;28;20077;-68
2022/12/06 13:43:38;;;;;;;7.10;2.40;;;7.30;99.90;;;;;;5114691;28;20097;-68